createdAt,value
2019-02-18T00:01:17.752Z,99.90
2019-02-18T00:03:47.388Z,99.90
2019-02-18T00:06:17.090Z,99.90
2019-02-18T00:08:46.808Z,99.90
2019-02-18T00:11:16.525Z,99.90
2019-02-18T00:13:46.173Z,99.90
2019-02-18T00:16:15.893Z,99.90
2019-02-18T00:18:45.549Z,99.90
2019-02-18T00:21:15.252Z,99.90
2019-02-18T00:23:44.911Z,99.90
2019-02-18T00:26:14.532Z,99.90
2019-02-18T00:28:44.210Z,99.90
2019-02-18T00:31:13.841Z,99.90
2019-02-18T00:33:43.503Z,99.90
2019-02-18T00:36:13.132Z,99.90
2019-02-18T00:38:42.815Z,99.90
2019-02-18T00:41:12.516Z,99.90
2019-02-18T00:43:42.171Z,99.90
2019-02-18T00:46:11.878Z,99.90
2019-02-18T00:48:41.535Z,99.90
2019-02-18T00:51:11.383Z,99.90
2019-02-18T00:53:41.032Z,99.90
2019-02-18T00:56:10.677Z,99.90
2019-02-18T00:58:40.344Z,99.90
2019-02-18T01:01:10.055Z,99.90
2019-02-18T01:03:39.797Z,99.90
2019-02-18T01:06:09.506Z,99.90
2019-02-18T01:08:39.163Z,99.90
2019-02-18T01:11:08.860Z,99.90
2019-02-18T01:13:38.584Z,99.90
2019-02-18T01:16:08.290Z,99.90
2019-02-18T01:18:37.950Z,99.90
2019-02-18T01:21:07.646Z,99.90
2019-02-18T01:23:37.312Z,99.90
2019-02-18T01:26:06.942Z,99.90
2019-02-18T01:28:36.602Z,99.90
2019-02-18T01:31:06.226Z,99.90
2019-02-18T01:33:35.890Z,99.90
2019-02-18T01:36:05.518Z,99.90
2019-02-18T01:38:35.172Z,99.90
2019-02-18T01:41:06.860Z,99.90
2019-02-18T01:43:36.521Z,99.90
2019-02-18T01:46:06.155Z,99.90
2019-02-18T01:48:35.797Z,99.90
2019-02-18T01:51:05.533Z,99.90
2019-02-18T01:53:35.181Z,99.90
2019-02-18T01:56:04.812Z,99.90
2019-02-18T01:58:34.472Z,99.90
2019-02-18T02:01:04.322Z,99.90
2019-02-18T02:03:33.965Z,99.90
2019-02-18T02:06:03.665Z,99.90
2019-02-18T02:08:33.322Z,99.90
2019-02-18T02:11:02.959Z,99.90
2019-02-18T02:13:35.014Z,99.90
2019-02-18T02:16:06.491Z,99.90
2019-02-18T02:18:36.171Z,99.90
2019-02-18T02:21:05.920Z,99.90
2019-02-18T02:23:35.599Z,99.90
2019-02-18T02:26:05.205Z,99.90
2019-02-18T02:28:34.839Z,99.90
2019-02-18T02:31:04.589Z,99.90
2019-02-18T02:33:34.228Z,99.90
2019-02-18T02:36:03.895Z,99.90
2019-02-18T02:38:33.508Z,99.90
2019-02-18T02:41:03.250Z,99.90
2019-02-18T02:43:32.901Z,99.90
2019-02-18T02:46:02.561Z,99.90
2019-02-18T02:48:32.189Z,99.90
2019-02-18T02:51:01.949Z,99.90
2019-02-18T02:53:31.562Z,99.90
2019-02-18T02:56:01.213Z,99.90
2019-02-18T02:58:30.842Z,99.90
2019-02-18T03:01:00.614Z,99.90
2019-02-18T03:03:30.233Z,99.90
2019-02-18T03:05:59.886Z,99.90
2019-02-18T03:08:29.509Z,99.90
2019-02-18T03:10:59.167Z,99.90
2019-02-18T03:13:28.793Z,99.90
2019-02-18T03:15:58.456Z,99.90
2019-02-18T03:18:28.089Z,99.90
2019-02-18T03:20:57.774Z,99.90
2019-02-18T03:23:27.405Z,99.90
2019-02-18T03:25:57.060Z,99.90
2019-02-18T03:28:41.843Z,99.90
2019-02-18T03:31:17.409Z,99.90
2019-02-18T03:33:52.970Z,99.90
2019-02-18T03:36:22.634Z,99.90
2019-02-18T03:38:52.362Z,99.90
2019-02-18T03:41:22.124Z,99.90
2019-02-18T03:43:51.757Z,99.90
2019-02-18T03:46:21.396Z,99.90
2019-02-18T03:48:51.025Z,99.90
2019-02-18T03:51:20.689Z,99.90
2019-02-18T03:53:50.296Z,99.90
2019-02-18T03:56:19.957Z,99.90
2019-02-18T03:58:49.581Z,99.90
2019-02-18T04:01:19.465Z,99.90
2019-02-18T04:03:49.101Z,99.90
2019-02-18T04:06:18.756Z,99.90
2019-02-18T04:08:48.365Z,99.90
2019-02-18T04:11:18.012Z,99.90
2019-02-18T04:13:47.640Z,99.90
2019-02-18T04:16:17.305Z,99.90
2019-02-18T04:18:46.912Z,99.90
2019-02-18T04:21:16.625Z,99.90
2019-02-18T04:23:46.269Z,99.90
2019-02-18T04:26:15.907Z,99.90
2019-02-18T04:28:45.528Z,99.90
2019-02-18T04:31:15.262Z,99.90
2019-02-18T04:33:44.889Z,99.90
2019-02-18T04:36:14.533Z,99.90
2019-02-18T04:38:53.758Z,99.90
2019-02-18T04:41:15.736Z,99.90
2019-02-18T04:43:45.690Z,99.90
2019-02-18T04:46:15.331Z,99.90
2019-02-18T04:48:44.953Z,99.90
2019-02-18T04:51:14.688Z,99.90
2019-02-18T04:53:44.312Z,99.90
2019-02-18T04:56:13.958Z,99.90
2019-02-18T04:58:43.580Z,99.90
2019-02-18T05:01:16.385Z,99.90
2019-02-18T05:03:46.005Z,99.90
2019-02-18T05:06:15.651Z,99.90
2019-02-18T05:08:45.385Z,99.90
2019-02-18T05:11:15.032Z,99.90
2019-02-18T05:13:45.964Z,99.90
2019-02-18T05:16:15.796Z,99.90
2019-02-18T05:18:45.420Z,99.90
2019-02-18T05:21:15.312Z,99.90
2019-02-18T05:23:44.945Z,99.90
2019-02-18T05:26:14.576Z,99.90
2019-02-18T05:28:44.200Z,99.90
2019-02-18T05:31:13.853Z,99.90
2019-02-18T05:33:43.482Z,99.90
2019-02-18T05:36:13.130Z,99.90
2019-02-18T05:38:42.753Z,99.90
2019-02-18T05:41:12.412Z,99.90
2019-02-18T05:43:42.040Z,99.90
2019-02-18T05:46:11.695Z,99.90
2019-02-18T05:48:41.320Z,99.90
2019-02-18T05:51:10.984Z,99.90
2019-02-18T05:53:40.605Z,99.90
2019-02-18T05:56:10.256Z,99.90
2019-02-18T05:58:39.887Z,99.90
2019-02-18T06:01:09.544Z,99.90
2019-02-18T06:03:39.180Z,99.90
2019-02-18T06:06:08.822Z,99.90
2019-02-18T06:08:38.520Z,99.90
2019-02-18T06:11:08.175Z,99.90
2019-02-18T06:13:37.801Z,99.90
2019-02-18T06:16:07.452Z,99.90
2019-02-18T06:18:37.076Z,99.90
2019-02-18T06:21:06.805Z,99.90
2019-02-18T06:23:36.429Z,99.90
2019-02-18T06:26:06.083Z,99.90
2019-02-18T06:28:35.708Z,99.90
2019-02-18T06:31:05.521Z,99.90
2019-02-18T06:33:35.148Z,99.90
2019-02-18T06:36:04.803Z,99.90
2019-02-18T06:38:34.460Z,99.90
2019-02-18T06:41:04.169Z,99.90
2019-02-18T06:43:33.812Z,99.90
2019-02-18T06:46:07.771Z,99.90
2019-02-18T06:48:39.075Z,99.90
2019-02-18T06:51:08.924Z,99.90
2019-02-18T06:53:38.576Z,99.90
2019-02-18T06:56:08.201Z,99.90
2019-02-18T06:58:42.153Z,99.90
2019-02-18T07:01:29.713Z,99.90
2019-02-18T07:04:13.181Z,99.90
2019-02-18T07:06:50.680Z,99.90
2019-02-18T07:09:48.750Z,99.90
2019-02-18T07:12:13.065Z,99.90
2019-02-18T07:14:42.714Z,99.90
2019-02-18T07:17:12.369Z,99.90
2019-02-18T07:19:42.021Z,99.90
2019-02-18T07:22:11.644Z,99.90
2019-02-18T07:24:41.296Z,99.90
2019-02-18T07:27:10.938Z,99.90
2019-02-18T07:29:40.586Z,99.90
2019-02-18T07:32:10.213Z,99.90
2019-02-18T07:34:39.939Z,99.90
2019-02-18T07:37:09.562Z,99.90
2019-02-18T07:39:39.212Z,99.90
2019-02-18T07:42:08.832Z,99.90
2019-02-18T07:44:38.488Z,99.90
2019-02-18T07:47:08.113Z,99.90
2019-02-18T07:49:37.769Z,99.90
2019-02-18T07:52:07.500Z,99.90
2019-02-18T07:54:37.146Z,99.90
2019-02-18T07:57:06.768Z,99.90
2019-02-18T07:59:36.416Z,99.90
2019-02-18T08:02:06.312Z,99.90
2019-02-18T08:04:35.956Z,99.90
2019-02-18T08:07:05.581Z,99.90
2019-02-18T08:09:35.230Z,99.90
2019-02-18T08:12:04.926Z,99.90
2019-02-18T08:14:34.577Z,99.90
2019-02-18T08:17:04.193Z,99.90
2019-02-18T08:19:33.840Z,99.90
2019-02-18T08:22:03.532Z,99.90
2019-02-18T08:24:33.176Z,99.90
2019-02-18T08:27:02.807Z,99.90
2019-02-18T08:29:32.458Z,99.60
2019-02-18T08:32:02.140Z,99.90
2019-02-18T08:34:31.788Z,98.90
2019-02-18T08:37:01.406Z,99.10
2019-02-18T08:39:31.077Z,98.50
2019-02-18T08:42:00.681Z,97.00
2019-02-18T08:44:30.334Z,96.70
2019-02-18T08:46:59.956Z,93.80
2019-02-18T08:49:29.605Z,93.00
2019-02-18T08:51:59.512Z,92.90
2019-02-18T08:54:29.163Z,87.20
2019-02-18T08:56:58.778Z,84.30
2019-02-18T08:59:28.425Z,87.20
2019-02-18T09:01:58.048Z,84.50
2019-02-18T09:04:28.213Z,80.20
2019-02-18T09:06:57.921Z,77.60
2019-02-18T09:09:27.537Z,77.90
2019-02-18T09:11:57.234Z,77.10
2019-02-18T09:14:26.813Z,74.30
2019-02-18T09:16:56.456Z,71.60
2019-02-18T09:19:26.076Z,72.30
2019-02-18T09:22:06.219Z,72.90
2019-02-18T09:24:37.484Z,74.10
2019-02-18T09:27:07.140Z,74.50
2019-02-18T09:29:36.763Z,73.50
2019-02-18T09:32:06.457Z,73.60
2019-02-18T09:34:36.076Z,71.30
2019-02-18T09:37:05.728Z,72.40
2019-02-18T09:39:35.367Z,69.90
2019-02-18T09:42:05.012Z,70.00
2019-02-18T09:44:34.639Z,66.60
2019-02-18T09:47:04.289Z,65.30
2019-02-18T09:49:33.917Z,64.70
2019-02-18T09:52:03.612Z,57.50
2019-02-18T09:54:33.241Z,50.00
2019-02-18T09:57:02.889Z,47.30
2019-02-18T09:59:32.523Z,44.70
2019-02-18T10:02:02.248Z,42.80
2019-02-18T10:04:31.879Z,42.80
2019-02-18T10:07:01.529Z,44.00
2019-02-18T10:09:31.153Z,41.80
2019-02-18T10:12:00.829Z,39.90
2019-02-18T10:14:30.457Z,41.70
2019-02-18T10:17:00.121Z,40.00
2019-02-18T10:19:29.752Z,40.20
2019-02-18T10:21:59.407Z,43.70
2019-02-18T10:24:29.033Z,44.80
2019-02-18T10:26:58.693Z,44.10
2019-02-18T10:29:28.320Z,46.50
2019-02-18T10:31:58.061Z,44.30
2019-02-18T10:34:27.688Z,44.30
2019-02-18T10:36:57.340Z,44.10
2019-02-18T10:39:26.974Z,42.50
2019-02-18T10:41:56.624Z,45.40
2019-02-18T10:44:26.253Z,43.20
2019-02-18T10:46:55.917Z,41.90
2019-02-18T10:49:25.552Z,41.70
2019-02-18T10:51:55.601Z,41.90
2019-02-18T10:54:25.233Z,44.30
2019-02-18T10:56:54.890Z,41.30
2019-02-18T10:59:24.527Z,39.80
2019-02-18T11:01:54.188Z,39.50
2019-02-18T11:04:23.832Z,38.10
2019-02-18T11:06:53.489Z,38.60
2019-02-18T11:09:23.113Z,39.90
2019-02-18T11:11:52.772Z,39.40
2019-02-18T11:14:22.711Z,37.40
2019-02-18T11:16:52.369Z,37.40
2019-02-18T11:19:21.997Z,37.30
2019-02-18T11:21:51.649Z,36.80
2019-02-18T11:24:21.277Z,36.40
2019-02-18T11:26:50.928Z,35.20
2019-02-18T11:29:20.562Z,36.60
2019-02-18T11:31:50.332Z,36.50
2019-02-18T11:34:19.965Z,35.70
2019-02-18T11:36:49.689Z,33.30
2019-02-18T11:39:19.321Z,33.20
2019-02-18T11:41:48.982Z,31.80
2019-02-18T11:44:18.616Z,32.30
2019-02-18T11:46:48.274Z,30.50
2019-02-18T11:49:17.914Z,30.10
2019-02-18T11:51:47.565Z,32.20
2019-02-18T11:54:17.493Z,30.20
2019-02-18T11:56:47.151Z,31.70
2019-02-18T11:59:24.004Z,31.20
2019-02-18T12:01:48.057Z,28.90
2019-02-18T12:04:17.685Z,29.60
2019-02-18T12:06:47.333Z,28.40
2019-02-18T12:09:17.820Z,30.10
2019-02-18T12:11:47.689Z,28.00
2019-02-18T12:14:17.346Z,27.00
2019-02-18T12:16:47.247Z,27.80
2019-02-18T12:19:16.901Z,29.10
2019-02-18T12:22:06.002Z,27.40
2019-02-18T12:24:35.629Z,26.80
2019-02-18T12:27:05.309Z,26.50
2019-02-18T12:29:34.937Z,25.70
2019-02-18T12:32:07.327Z,26.00
2019-02-18T12:34:37.356Z,25.50
2019-02-18T12:37:07.022Z,26.10
2019-02-18T12:39:39.681Z,27.70
2019-02-18T12:42:09.868Z,26.60
2019-02-18T12:44:39.433Z,26.50
2019-02-18T12:47:09.561Z,26.40
2019-02-18T12:49:39.213Z,27.40
2019-02-18T12:52:09.001Z,27.30
2019-02-18T12:54:38.733Z,27.30
2019-02-18T12:57:08.365Z,25.60
2019-02-18T12:59:38.068Z,28.40
2019-02-18T13:02:08.048Z,27.10
2019-02-18T13:04:37.996Z,29.00
2019-02-18T13:07:07.635Z,26.90
2019-02-18T13:09:37.344Z,27.10
2019-02-18T13:12:07.054Z,28.60
2019-02-18T13:14:36.698Z,28.90
2019-02-18T13:17:06.673Z,27.60
2019-02-18T13:19:36.322Z,26.60
2019-02-18T13:22:06.124Z,28.00
2019-02-18T13:24:36.790Z,27.50
2019-02-18T13:27:25.913Z,28.70
2019-02-18T13:29:55.561Z,27.80
2019-02-18T13:32:25.521Z,27.90
2019-02-18T13:34:55.188Z,27.80
2019-02-18T13:37:24.820Z,28.80
2019-02-18T13:39:54.465Z,28.70
2019-02-18T13:42:24.097Z,29.00
2019-02-18T13:44:53.754Z,29.10
2019-02-18T13:47:23.679Z,29.00
2019-02-18T13:49:53.400Z,29.40
2019-02-18T13:52:25.821Z,33.00
2019-02-18T13:54:55.473Z,39.50
2019-02-18T13:57:25.216Z,44.20
2019-02-18T13:59:54.896Z,47.10
2019-02-18T14:02:27.016Z,48.20
2019-02-18T14:04:56.664Z,49.10
2019-02-18T14:07:26.369Z,48.90
2019-02-18T14:09:56.024Z,49.80
2019-02-18T14:12:25.796Z,50.60
2019-02-18T14:14:55.760Z,51.70
2019-02-18T14:17:25.403Z,52.60
2019-02-18T14:19:55.120Z,52.50
2019-02-18T14:22:24.764Z,54.10
2019-02-18T14:24:54.426Z,55.40
2019-02-18T14:27:24.056Z,55.30
2019-02-18T14:29:53.920Z,56.60
2019-02-18T14:32:24.948Z,58.00
2019-02-18T14:34:54.608Z,58.10
2019-02-18T14:37:24.245Z,58.20
2019-02-18T14:39:54.801Z,59.20
2019-02-18T14:42:26.460Z,61.00
2019-02-18T14:44:56.120Z,60.10
2019-02-18T14:47:25.745Z,61.70
2019-02-18T14:49:55.471Z,64.70
2019-02-18T14:52:25.440Z,68.20
2019-02-18T14:54:55.192Z,70.20
2019-02-18T14:57:25.120Z,74.20
2019-02-18T14:59:54.785Z,74.40
2019-02-18T15:02:24.481Z,75.50
2019-02-18T15:04:54.205Z,75.20
2019-02-18T15:07:23.837Z,75.80
2019-02-18T15:09:53.485Z,74.30
2019-02-18T15:12:23.644Z,75.60
2019-02-18T15:14:53.310Z,77.50
2019-02-18T15:17:23.004Z,78.00
2019-02-18T15:19:52.665Z,76.90
2019-02-18T15:22:22.362Z,77.90
2019-02-18T15:24:52.008Z,82.70
2019-02-18T15:27:21.804Z,81.30
2019-02-18T15:29:51.454Z,82.80
2019-02-18T15:32:21.120Z,83.80
2019-02-18T15:34:50.773Z,85.50
2019-02-18T15:37:21.496Z,82.70
2019-02-18T15:39:51.541Z,82.60
2019-02-18T15:42:21.360Z,82.90
2019-02-18T15:44:51.084Z,81.50
2019-02-18T15:47:20.953Z,82.40
2019-02-18T15:49:50.604Z,88.40
2019-02-18T15:52:20.308Z,91.00
2019-02-18T15:54:50.178Z,92.30
2019-02-18T15:57:19.875Z,92.30
2019-02-18T15:59:49.526Z,92.70
2019-02-18T16:02:19.377Z,93.70
2019-02-18T16:04:49.020Z,93.00
2019-02-18T16:07:18.725Z,91.80
2019-02-18T16:09:48.388Z,91.70
2019-02-18T16:12:18.048Z,92.20
2019-02-18T16:14:48.142Z,94.20
2019-02-18T16:17:17.841Z,97.30
2019-02-18T16:19:47.476Z,97.60
2019-02-18T16:22:17.169Z,97.30
2019-02-18T16:24:46.798Z,96.40
2019-02-18T16:27:16.457Z,97.00
2019-02-18T16:29:46.098Z,97.40
2019-02-18T16:32:15.821Z,98.80
2019-02-18T16:34:45.458Z,99.90
2019-02-18T16:37:15.400Z,99.90
2019-02-18T16:39:45.174Z,99.90
2019-02-18T16:42:14.936Z,99.90
2019-02-18T16:44:44.566Z,99.90
2019-02-18T16:47:14.225Z,99.90
2019-02-18T16:49:43.841Z,99.90
2019-02-18T16:52:13.879Z,99.90
2019-02-18T16:54:43.513Z,99.90
2019-02-18T16:57:13.157Z,99.90
2019-02-18T16:59:42.805Z,99.90
2019-02-18T17:02:13.393Z,99.90
2019-02-18T17:04:43.414Z,99.90
2019-02-18T17:07:13.066Z,99.90
2019-02-18T17:09:42.790Z,99.90
2019-02-18T17:12:13.384Z,99.90
2019-02-18T17:14:43.004Z,99.90
2019-02-18T17:17:12.652Z,99.90
2019-02-18T17:19:42.576Z,99.90
2019-02-18T17:22:12.323Z,99.90
2019-02-18T17:24:41.955Z,99.90
2019-02-18T17:27:11.604Z,99.90
2019-02-18T17:29:41.230Z,99.90
2019-02-18T17:32:10.950Z,99.90
2019-02-18T17:34:42.943Z,99.90
2019-02-18T17:37:14.662Z,99.90
2019-02-18T17:39:47.591Z,99.90
2019-02-18T17:42:17.534Z,99.90
2019-02-18T17:44:47.753Z,99.90
2019-02-18T17:47:17.876Z,99.90
2019-02-18T17:49:47.508Z,99.90
2019-02-18T17:52:17.216Z,99.90
2019-02-18T17:54:46.880Z,99.90
2019-02-18T17:57:16.529Z,99.90
2019-02-18T17:59:46.153Z,99.90
2019-02-18T18:02:16.136Z,99.90
2019-02-18T18:04:45.763Z,99.90
2019-02-18T18:07:15.413Z,99.90
2019-02-18T18:09:45.032Z,99.90
2019-02-18T18:12:14.677Z,99.90
2019-02-18T18:14:44.307Z,99.90
2019-02-18T18:17:14.365Z,99.90
2019-02-18T18:19:43.981Z,99.90
2019-02-18T18:22:13.729Z,99.90
2019-02-18T18:24:43.349Z,99.90
2019-02-18T18:27:12.996Z,99.90
2019-02-18T18:29:42.624Z,99.90
2019-02-18T18:32:12.550Z,99.90
2019-02-18T18:34:42.181Z,99.90
2019-02-18T18:37:11.830Z,99.90
2019-02-18T18:39:41.450Z,99.90
2019-02-18T18:42:11.283Z,99.90
2019-02-18T18:44:40.898Z,99.90
2019-02-18T18:47:10.590Z,99.90
2019-02-18T18:49:40.219Z,99.90
2019-02-18T18:52:09.913Z,99.90
2019-02-18T18:54:39.629Z,99.90
2019-02-18T18:57:09.289Z,99.90
2019-02-18T18:59:39.298Z,99.90
2019-02-18T19:02:09.093Z,99.90
2019-02-18T19:04:38.743Z,99.90
2019-02-18T19:07:08.369Z,99.90
2019-02-18T19:09:38.022Z,99.90
2019-02-18T19:12:07.636Z,99.90
2019-02-18T19:14:37.290Z,99.90
2019-02-18T19:17:06.912Z,99.90
2019-02-18T19:19:36.553Z,99.90
2019-02-18T19:22:06.367Z,99.90
2019-02-18T19:24:36.027Z,99.90
2019-02-18T19:27:06.048Z,99.90
2019-02-18T19:29:37.418Z,99.90
2019-02-18T19:32:07.085Z,99.90
2019-02-18T19:34:36.789Z,99.90
2019-02-18T19:37:06.413Z,99.90
2019-02-18T19:39:36.072Z,99.90
2019-02-18T19:42:07.567Z,99.90
2019-02-18T19:44:37.225Z,99.90
2019-02-18T19:47:06.840Z,99.90
2019-02-18T19:49:36.505Z,99.90
2019-02-18T19:52:06.269Z,99.90
2019-02-18T19:54:36.221Z,99.90
2019-02-18T19:57:05.842Z,99.90
2019-02-18T19:59:35.489Z,99.90
2019-02-18T20:02:05.328Z,99.90
2019-02-18T20:04:34.980Z,99.90
2019-02-18T20:07:04.605Z,99.90
2019-02-18T20:09:34.269Z,99.90
2019-02-18T20:12:04.043Z,99.90
2019-02-18T20:14:33.689Z,99.90
2019-02-18T20:17:03.321Z,99.90
2019-02-18T20:19:32.964Z,99.90
2019-02-18T20:22:03.180Z,99.90
2019-02-18T20:24:32.833Z,99.90
2019-02-18T20:27:02.459Z,99.90
2019-02-18T20:29:32.117Z,99.90
2019-02-18T20:32:01.917Z,99.90
2019-02-18T20:34:31.568Z,99.90
2019-02-18T20:37:01.430Z,99.90
2019-02-18T20:39:31.077Z,99.90
2019-02-18T20:42:00.704Z,99.90
2019-02-18T20:44:30.353Z,99.90
2019-02-18T20:46:59.980Z,99.90
2019-02-18T20:49:29.628Z,99.90
2019-02-18T20:51:59.688Z,99.90
2019-02-18T20:54:29.336Z,99.90
2019-02-18T20:56:58.961Z,99.90
2019-02-18T20:59:28.612Z,99.90
2019-02-18T21:01:58.236Z,99.90
2019-02-18T21:04:28.288Z,99.90
2019-02-18T21:06:57.912Z,99.90
2019-02-18T21:09:27.562Z,99.90
2019-02-18T21:11:57.245Z,99.90
2019-02-18T21:14:26.893Z,99.90
2019-02-18T21:16:56.517Z,99.90
2019-02-18T21:19:38.474Z,99.90
2019-02-18T21:22:08.088Z,99.90
2019-02-18T21:24:37.740Z,99.90
2019-02-18T21:27:07.375Z,99.90
2019-02-18T21:29:37.015Z,99.90
2019-02-18T21:32:06.640Z,99.90
2019-02-18T21:34:36.357Z,99.90
2019-02-18T21:37:05.969Z,99.90
2019-02-18T21:39:35.609Z,99.90
2019-02-18T21:42:05.349Z,99.90
2019-02-18T21:44:35.338Z,99.90
2019-02-18T21:47:25.793Z,99.90
2019-02-18T21:49:55.436Z,99.90
2019-02-18T21:52:25.060Z,99.90
2019-02-18T21:54:55.082Z,99.90
2019-02-18T21:57:24.717Z,99.90
2019-02-18T21:59:54.429Z,99.90
2019-02-18T22:02:24.093Z,99.90
2019-02-18T22:04:53.720Z,99.90
2019-02-18T22:07:23.352Z,99.90
2019-02-18T22:09:53.304Z,99.90
2019-02-18T22:12:23.069Z,99.90
2019-02-18T22:14:52.713Z,99.90
2019-02-18T22:17:22.341Z,99.90
2019-02-18T22:19:51.967Z,99.90
2019-02-18T22:22:21.633Z,99.90
2019-02-18T22:24:51.652Z,99.90
2019-02-18T22:27:21.572Z,99.90
2019-02-18T22:29:51.192Z,99.90
2019-02-18T22:32:20.839Z,99.90
2019-02-18T22:34:50.459Z,99.90
2019-02-18T22:37:20.161Z,99.90
2019-02-18T22:39:49.840Z,99.90
2019-02-18T22:42:19.492Z,99.90
2019-02-18T22:44:49.112Z,99.90
2019-02-18T22:47:18.766Z,99.90
2019-02-18T22:49:48.392Z,99.90
2019-02-18T22:52:18.044Z,99.90
2019-02-18T22:54:47.664Z,99.90
2019-02-18T22:57:17.313Z,99.90
2019-02-18T22:59:46.936Z,99.90
2019-02-18T23:02:16.723Z,99.90
2019-02-18T23:04:46.354Z,99.90
2019-02-18T23:07:16.000Z,99.90
2019-02-18T23:09:45.632Z,99.90
2019-02-18T23:12:15.354Z,99.90
2019-02-18T23:14:50.282Z,99.90
2019-02-18T23:17:16.292Z,99.90
2019-02-18T23:19:45.916Z,99.90
2019-02-18T23:22:15.692Z,99.90
2019-02-18T23:24:45.322Z,99.90
2019-02-18T23:27:14.969Z,99.90
2019-02-18T23:29:44.602Z,99.90
2019-02-18T23:32:14.245Z,99.90
2019-02-18T23:34:43.864Z,99.90
2019-02-18T23:37:13.547Z,99.90
2019-02-18T23:39:43.168Z,99.90
2019-02-18T23:42:12.848Z,99.90
2019-02-18T23:44:42.470Z,99.90
2019-02-18T23:47:12.117Z,99.90
2019-02-18T23:49:41.744Z,99.90
2019-02-18T23:52:11.590Z,99.90
2019-02-18T23:54:41.212Z,99.90
2019-02-18T23:57:10.857Z,99.90
2019-02-18T23:59:40.477Z,99.90
